weather.gov     
National Weather Service

Terminal Aerodrome Forecast
NWS Homepage
This page is being discontinued on March 12, 2014.
The same data is available at this site. Please update your bookmarks.
Thank you, and we apologize for the inconvenience.
Please send an email to SR-SRH.Webmaster@noaa.gov with any concerns.


Current Version
Previous Version:    01  02  03  04  05  06  07  08  09  10  11  12  13  14  15  16  17  18  19  20  21  22  23  24  25  26  27  28  29  30  
   31  32  33  
[Printable]
068
FTUS44 KLIX 250500
TAFBTR
TAF
KBTR 250536Z 2506/2606 22008KT P6SM SCT015 BKN025
     FM250900 23004KT 5SM BR BKN009
     FM251100 32004KT 3SM BR BKN004
     FM251330 31005KT P6SM SCT030
     FM251800 VRB05KT P6SM SCT250
     FM260100 18003KT P6SM SCT250=


U.S. Dept. of Commerce
NOAA National Weather Service
1325 East West Highway
Silver Spring, MD 20910
E-mail: w-nws.webmaster@noaa.gov
Page last modified: May 16, 2007
NATIONAL WEATHER SERVICE: for Safety, for Work, for Fun - FOR LIFE